地図

経路データ

SID SEASON NUMBER BASIN SUBBASIN NAME ISO_TIME NATURE LAT LON WMO_WIND WMO_PRES WMO_AGENCY TRACK_TYPE DIST2LAND LANDFALL IFLAG USA_AGENCY USA_ATCF_ID USA_LAT USA_LON USA_RECORD USA_STATUS USA_WIND USA_PRES USA_SSHS USA_R34_NE USA_R34_SE USA_R34_SW USA_R34_NW USA_R50_NE USA_R50_SE USA_R50_SW USA_R50_NW USA_R64_NE USA_R64_SE USA_R64_SW USA_R64_NW USA_POCI USA_ROCI USA_RMW USA_EYE TOKYO_LAT TOKYO_LON TOKYO_GRADE TOKYO_WIND TOKYO_PRES TOKYO_R50_DIR TOKYO_R50_LONG TOKYO_R50_SHORT TOKYO_R30_DIR TOKYO_R30_LONG TOKYO_R30_SHORT TOKYO_LAND CMA_LAT CMA_LON CMA_CAT CMA_WIND CMA_PRES HKO_LAT HKO_LON HKO_CAT HKO_WIND HKO_PRES NEWDELHI_LAT NEWDELHI_LON NEWDELHI_GRADE NEWDELHI_WIND NEWDELHI_PRES NEWDELHI_CI NEWDELHI_DP NEWDELHI_POCI REUNION_LAT REUNION_LON REUNION_TYPE REUNION_WIND REUNION_PRES REUNION_TNUM REUNION_CI REUNION_RMW REUNION_R34_NE REUNION_R34_SE REUNION_R34_SW REUNION_R34_NW REUNION_R50_NE REUNION_R50_SE REUNION_R50_SW REUNION_R50_NW REUNION_R64_NE REUNION_R64_SE REUNION_R64_SW REUNION_R64_NW BOM_LAT BOM_LON BOM_TYPE BOM_WIND BOM_PRES BOM_TNUM BOM_CI BOM_RMW BOM_R34_NE BOM_R34_SE BOM_R34_SW BOM_R34_NW BOM_R50_NE BOM_R50_SE BOM_R50_SW BOM_R50_NW BOM_R64_NE BOM_R64_SE BOM_R64_SW BOM_R64_NW BOM_ROCI BOM_POCI BOM_EYE BOM_POS_METHOD BOM_PRES_METHOD NADI_LAT NADI_LON NADI_CAT NADI_WIND NADI_PRES WELLINGTON_LAT WELLINGTON_LON WELLINGTON_WIND WELLINGTON_PRES DS824_LAT DS824_LON DS824_STAGE DS824_WIND DS824_PRES TD9636_LAT TD9636_LON TD9636_STAGE TD9636_WIND TD9636_PRES TD9635_LAT TD9635_LON TD9635_WIND TD9635_PRES TD9635_ROCI NEUMANN_LAT NEUMANN_LON NEUMANN_CLASS NEUMANN_WIND NEUMANN_PRES MLC_LAT MLC_LON MLC_CLASS MLC_WIND MLC_PRES USA_GUST BOM_GUST BOM_GUST_PER REUNION_GUST REUNION_GUST_PER USA_SEAHGT USA_SEARAD_NE USA_SEARAD_SE USA_SEARAD_SW USA_SEARAD_NW STORM_SPEED STORM_DIR
1888304N15310 1888 57 NA NA NOT_NAMED 1888-10-29 12:00:00 TS 14.7000 -50.5000 main 1065 1061 _____________O -1 14.7000 -50.5000 TD 30 6 303
1888304N15310 1888 57 NA NA NOT_NAMED 1888-10-29 15:00:00 TS 14.8626 -50.7624 main 1074 1070 _____________P -1 14.8626 -50.7624 TD 30 6 302
1888304N15310 1888 57 NA NA NOT_NAMED 1888-10-29 18:00:00 TS 15.0000 -51.0000 main 1077 1074 _____________O -1 15.0000 -51.0000 TD 30 5 299
1888304N15310 1888 57 NA NA NOT_NAMED 1888-10-29 21:00:00 TS 15.0999 -51.2001 main 1081 1078 _____________P -1 15.0999 -51.2001 TD 30 4 297
1888304N15310 1888 57 NA NA NOT_NAMED 1888-10-30 00:00:00 TS 15.2000 -51.4000 main 1085 1082 _____________O -1 15.2000 -51.4000 TD 30 5 300
1888304N15310 1888 57 NA NA NOT_NAMED 1888-10-30 03:00:00 TS 15.3500 -51.6500 main 1101 1095 _____________P -1 15.3500 -51.6500 TD 30 6 302
1888304N15310 1888 57 NA NA NOT_NAMED 1888-10-30 06:00:00 TS 15.5000 -51.9000 main 1104 1101 _____________O -1 15.5000 -51.9000 TD 30 5 301
1888304N15310 1888 57 NA NA NOT_NAMED 1888-10-30 09:00:00 TS 15.6074 -52.1001 main 1109 1095 _____________P -1 15.6074 -52.1001 TD 30 4 297
1888304N15310 1888 57 NA NA NOT_NAMED 1888-10-30 12:00:00 TS 15.7000 -52.3000 main 1095 1082 _____________O -1 15.7000 -52.3000 TD 30 5 294
1888304N15310 1888 57 NA NA NOT_NAMED 1888-10-30 15:00:00 TS 15.8000 -52.5500 main 1082 1061 _____________P -1 15.8000 -52.5500 TD 30 5 293
1888304N15310 1888 57 NA NA NOT_NAMED 1888-10-30 18:00:00 TS 15.9000 -52.8000 main 1061 1049 _____________O -1 15.9000 -52.8000 TD 30 5 296
1888304N15310 1888 57 NA NA NOT_NAMED 1888-10-30 21:00:00 TS 16.0074 -53.0000 main 1049 1038 _____________P -1 16.0074 -53.0000 TD 30 4 297
1888304N15310 1888 57 NA NA NOT_NAMED 1888-10-31 00:00:00 TS 16.1000 -53.2000 main 1038 1020 _____________O -1 16.1000 -53.2000 TD 30 5 288
1888304N15310 1888 57 NA NA NOT_NAMED 1888-10-31 03:00:00 TS 16.1500 -53.4501 main 1018 1001 _____________P -1 16.1500 -53.4501 TD 30 5 282
1888304N15310 1888 57 NA NA NOT_NAMED 1888-10-31 06:00:00 TS 16.2000 -53.7000 main 1001 991 _____________O -1 16.2000 -53.7000 TD 30 5 287
1888304N15310 1888 57 NA NA NOT_NAMED 1888-10-31 09:00:00 TS 16.2850 -53.9075 main 991 981 _____________P -1 16.2850 -53.9075 TD 30 4 297
1888304N15310 1888 57 NA NA NOT_NAMED 1888-10-31 12:00:00 TS 16.4000 -54.1000 main 981 972 _____________O -1 16.4000 -54.1000 TD 30 5 304
1888304N15310 1888 57 NA NA NOT_NAMED 1888-10-31 15:00:00 TS 16.5425 -54.3075 main 972 971 _____________P -1 16.5425 -54.3075 TD 30 5 308
1888304N15310 1888 57 NA NA NOT_NAMED 1888-10-31 18:00:00 TS 16.7000 -54.5000 main 971 971 _____________O -1 16.7000 -54.5000 TD 30 5 313
1888304N15310 1888 57 NA NA NOT_NAMED 1888-10-31 21:00:00 TS 16.8500 -54.6501 main 964 964 _____________P -1 16.8500 -54.6501 TD 30 4 316
1888304N15310 1888 57 NA NA NOT_NAMED 1888-11-01 00:00:00 TS 17.0000 -54.8000 main 972 964 _____________O -1 17.0000 -54.8000 TD 30 5 313
1888304N15310 1888 57 NA NA NOT_NAMED 1888-11-01 03:00:00 TS 17.1575 -55.0000 main 974 966 _____________P -1 17.1575 -55.0000 TD 30 5 308
1888304N15310 1888 57 NA NA NOT_NAMED 1888-11-01 06:00:00 TS 17.3000 -55.2000 main 968 961 _____________O -1 17.3000 -55.2000 TD 30 4 306
1888304N15310 1888 57 NA NA NOT_NAMED 1888-11-01 09:00:00 TS 17.3924 -55.3426 main 969 963 _____________P -1 17.3924 -55.3426 TD 32 4 305
1888304N15310 1888 57 NA NA NOT_NAMED 1888-11-01 12:00:00 TS 17.5000 -55.5000 main 965 958 _____________O -1 17.5000 -55.5000 TS 35 5 308
1888304N15310 1888 57 NA NA NOT_NAMED 1888-11-01 15:00:00 TS 17.6850 -55.7350 main 969 963 _____________P -1 17.6850 -55.7350 TS 35 6 310
1888304N15310 1888 57 NA NA NOT_NAMED 1888-11-01 18:00:00 TS 17.9000 -56.0000 main 969 963 _____________O -1 17.9000 -56.0000 TS 35 6 310
1888304N15310 1888 57 NA NA NOT_NAMED 1888-11-01 21:00:00 TS 18.1000 -56.2501 main 970 960 _____________P -1 18.1000 -56.2501 TS 35 6 310
1888304N15310 1888 57 NA NA NOT_NAMED 1888-11-02 00:00:00 TS 18.3000 -56.5000 main 960 938 _____________O -1 18.3000 -56.5000 TS 35 6 311
1888304N15310 1888 57 NA NA NOT_NAMED 1888-11-02 03:00:00 TS 18.5075 -56.7500 main 928 907 _____________P -1 18.5075 -56.7500 TS 35 6 310
1888304N15310 1888 57 NA NA NOT_NAMED 1888-11-02 06:00:00 TS 18.7000 -57.0000 main 907 886 _____________O -1 18.7000 -57.0000 TS 35 6 306
1888304N15310 1888 57 NA NA NOT_NAMED 1888-11-02 09:00:00 TS 18.8500 -57.2501 main 875 855 _____________P -1 18.8500 -57.2501 TS 37 6 302
1888304N15310 1888 57 NA NA NOT_NAMED 1888-11-02 12:00:00 TS 19.0000 -57.5000 main 855 835 _____________O -1 19.0000 -57.5000 TS 40 6 306
1888304N15310 1888 57 NA NA NOT_NAMED 1888-11-02 15:00:00 TS 19.1925 -57.7500 main 825 807 _____________P -1 19.1925 -57.7500 TS 40 6 310
1888304N15310 1888 57 NA NA NOT_NAMED 1888-11-02 18:00:00 TS 19.4000 -58.0000 main 807 787 _____________O -1 19.4000 -58.0000 TS 40 6 311
1888304N15310 1888 57 NA NA NOT_NAMED 1888-11-02 21:00:00 TS 19.6000 -58.2501 main 779 762 _____________P -1 19.6000 -58.2501 TS 40 6 310
1888304N15310 1888 57 NA NA NOT_NAMED 1888-11-03 00:00:00 TS 19.8000 -58.5000 main 762 743 _____________O -1 19.8000 -58.5000 TS 40 6 311
1888304N15310 1888 57 NA NA NOT_NAMED 1888-11-03 03:00:00 TS 20.0075 -58.7500 main 736 721 _____________P -1 20.0075 -58.7500 TS 40 6 310
1888304N15310 1888 57 NA NA NOT_NAMED 1888-11-03 06:00:00 TS 20.2000 -59.0000 main 721 694 _____________O -1 20.2000 -59.0000 TS 40 6 304
1888304N15310 1888 57 NA NA NOT_NAMED 1888-11-03 09:00:00 TS 20.3275 -59.2651 main 694 677 _____________P -1 20.3275 -59.2651 TS 42 6 303
1888304N15310 1888 57 NA NA NOT_NAMED 1888-11-03 12:00:00 TS 20.5000 -59.5000 main 681 673 _____________O -1 20.5000 -59.5000 TS 45 6 323
1888304N15310 1888 57 NA NA NOT_NAMED 1888-11-03 15:00:00 TS 20.8275 -59.6725 main 673 673 _____________P -1 20.8275 -59.6725 TS 45 8 338
1888304N15310 1888 57 NA NA NOT_NAMED 1888-11-03 18:00:00 TS 21.2000 -59.8000 main 682 678 _____________O -1 21.2000 -59.8000 TS 45 7 342
1888304N15310 1888 57 NA NA NOT_NAMED 1888-11-03 21:00:00 TS 21.5075 -59.9076 main 689 689 _____________P -1 21.5075 -59.9076 TS 45 6 343
1888304N15310 1888 57 NA NA NOT_NAMED 1888-11-04 00:00:00 TS 21.8000 -60.0000 main 697 694 _____________O -1 21.8000 -60.0000 TS 45 6 343
1888304N15310 1888 57 NA NA NOT_NAMED 1888-11-04 03:00:00 TS 22.1000 -60.1075 main 707 705 _____________P -1 22.1000 -60.1075 TS 45 6 343
1888304N15310 1888 57 NA NA NOT_NAMED 1888-11-04 06:00:00 TS 22.4000 -60.2000 main 718 718 _____________O -1 22.4000 -60.2000 TS 45 6 346
1888304N15310 1888 57 NA NA NOT_NAMED 1888-11-04 09:00:00 TS 22.7075 -60.2725 main 731 731 _____________P -1 22.7075 -60.2725 TS 47 6 352
1888304N15310 1888 57 NA NA NOT_NAMED 1888-11-04 12:00:00 TS 23.0000 -60.3000 main 753 753 _____________O -1 23.0000 -60.3000 TS 50 6 353
1888304N15310 1888 57 NA NA NOT_NAMED 1888-11-04 15:00:00 TS 23.2571 -60.3471 main 776 776 _____________P -1 23.2571 -60.3471 TS 50 5 10
1888304N15310 1888 57 NA NA NOT_NAMED 1888-11-04 18:00:00 TS 23.5000 -60.2000 main 799 799 _____________O -1 23.5000 -60.2000 TS 50 8 53
1888304N15310 1888 57 NA NA NOT_NAMED 1888-11-04 21:00:00 TS 23.7509 -59.6380 main 866 866 _____________P -1 23.7509 -59.6380 TS 50 12 66
1888304N15310 1888 57 NA NA NOT_NAMED 1888-11-05 00:00:00 TS 24.0000 -59.0000 main 927 927 _____________O -1 24.0000 -59.0000 TS 50 10 61
1888304N15310 1888 57 NA NA NOT_NAMED 1888-11-05 03:00:00 TS 24.2495 -58.6621 main 964 964 _____________P -1 24.2495 -58.6621 TS 50 7 48
1888304N15310 1888 57 NA NA NOT_NAMED 1888-11-05 06:00:00 TS 24.5000 -58.4000 main 1009 1009 _____________O -1 24.5000 -58.4000 TS 50 7 47
1888304N15310 1888 57 NA NA NOT_NAMED 1888-11-05 09:00:00 TS 24.7347 -58.0870 main 1047 1047 _____________P -1 24.7347 -58.0870 TS 50 8 52
1888304N15310 1888 57 NA NA NOT_NAMED 1888-11-05 12:00:00 TS 25.0000 -57.7000 main 1099 1099 _____________O -1 25.0000 -57.7000 TS 50 10 54
1888304N15310 1888 57 NA NA NOT_NAMED 1888-11-05 15:00:00 TS 25.3352 -57.1726 main 1159 1159 _____________P -1 25.3352 -57.1726 TS 50 12 55
1888304N15310 1888 57 NA NA NOT_NAMED 1888-11-05 18:00:00 TS 25.7000 -56.6000 main 1234 1234 _____________O -1 25.7000 -56.6000 TS 50 12 54
1888304N15310 1888 57 NA NA NOT_NAMED 1888-11-05 21:00:00 TS 26.0497 -56.0996 main 1294 1294 _____________P -1 26.0497 -56.0996 TS 50 11 52
1888304N15310 1888 57 NA NA NOT_NAMED 1888-11-06 00:00:00 TS 26.4000 -55.6000 main 1361 1361 _____________O -1 26.4000 -55.6000 TS 50 12 53
1888304N15310 1888 57 NA NA NOT_NAMED 1888-11-06 03:00:00 TS 26.7575 -55.0499 main 1435 1435 _____________P -1 26.7575 -55.0499 TS 50 12 55
1888304N15310 1888 57 NA NA NOT_NAMED 1888-11-06 06:00:00 TS 27.1000 -54.5000 main 1495 1495 _____________O -1 27.1000 -54.5000 TS 50 11 57
1888304N15310 1888 57 NA NA NOT_NAMED 1888-11-06 09:00:00 TS 27.3621 -54.0062 main 1554 1554 _____________P -1 27.3621 -54.0062 TS 50 11 56
1888304N15310 1888 57 NA NA NOT_NAMED 1888-11-06 12:00:00 TS 27.7000 -53.5000 main 1614 1614 _____________O -1 27.7000 -53.5000 TS 50 13 47
1888304N15310 1888 57 NA NA NOT_NAMED 1888-11-06 15:00:00 TS 28.2550 -52.9078 main 1701 1701 _____________P -1 28.2550 -52.9078 TS 50 16 41
1888304N15310 1888 57 NA NA NOT_NAMED 1888-11-06 18:00:00 TS 28.9000 -52.3000 main 1789 1789 _____________O -1 28.9000 -52.3000 TS 50 16 39
1888304N15310 1888 57 NA NA NOT_NAMED 1888-11-06 21:00:00 TS 29.4997 -51.7417 main 1876 1845 _____________P -1 29.4997 -51.7417 TS 50 15 39
1888304N15310 1888 57 NA NA NOT_NAMED 1888-11-07 00:00:00 TS 30.1000 -51.2000 main 1845 1783 _____________O -1 30.1000 -51.2000 TS 50 15 38
1888304N15310 1888 57 NA NA NOT_NAMED 1888-11-07 03:00:00 TS 30.6998 -50.6493 main 1784 1723 _____________P -1 30.6998 -50.6493 TS 50 15 38
1888304N15310 1888 57 NA NA NOT_NAMED 1888-11-07 06:00:00 TS 31.3000 -50.1000 main 1723 1664 _____________O -1 31.3000 -50.1000 TS 50 15 37
1888304N15310 1888 57 NA NA NOT_NAMED 1888-11-07 09:00:00 TS 31.9370 -49.5648 main 1664 1609 _____________P -1 31.9370 -49.5648 TS 47 15 38
1888304N15310 1888 57 NA NA NOT_NAMED 1888-11-07 12:00:00 TS 32.5000 -49.0000 main 1609 1577 _____________O -1 32.5000 -49.0000 TS 45 14 47
1888304N15310 1888 57 NA NA NOT_NAMED 1888-11-07 15:00:00 TS 32.8950 -48.3567 main 1577 1559 _____________P -1 32.8950 -48.3567 TS 45 13 57
1888304N15310 1888 57 NA NA NOT_NAMED 1888-11-07 18:00:00 TS 33.2000 -47.7000 main 1561 1543 _____________O -1 33.2000 -47.7000 TS 45 12 60
1888304N15310 1888 57 NA NA NOT_NAMED 1888-11-07 21:00:00 TS 33.5070 -47.0993 main 1545 1528 _____________P -1 33.5070 -47.0993 TS 45 12 59
1888304N15310 1888 57 NA NA NOT_NAMED 1888-11-08 00:00:00 ET 33.8000 -46.5000 main 1531 1519 _____________O -1 33.8000 -46.5000 EX 45 12 60
1888304N15310 1888 57 NA NA NOT_NAMED 1888-11-08 03:00:00 ET 34.0999 -45.8497 main 1523 1506 _____________P -1 34.0999 -45.8497 EX 42 12 61
1888304N15310 1888 57 NA NA NOT_NAMED 1888-11-08 06:00:00 ET 34.4000 -45.2000 main 1513 1513 _____________O -1 34.4000 -45.2000 EX 40 10 86
1888304N15310 1888 57 NA NA NOT_NAMED 1888-11-08 09:00:00 ET 34.1604 -44.6522 main 1553 1511 _____________P -1 34.1604 -44.6522 EX 37 12 59
1888304N15310 1888 57 NA NA NOT_NAMED 1888-11-08 12:00:00 ET 35.0000 -44.0000 main 1501 1262 _____________O -1 35.0000 -44.0000 EX 35 42 18
1888304N15310 1888 57 NA NA NOT_NAMED 1888-11-08 15:00:00 ET 38.1837 -43.0161 main 1250 1002 _____________P -1 38.1837 -43.0161 EX 35 80 13
1888304N15310 1888 57 NA NA NOT_NAMED 1888-11-08 18:00:00 ET 42.8000 -41.7000 main 991 _____________O -1 42.8000 -41.7000 EX 35 94 12

IBTrACS Databaseについて

本データベースは、米国NOAAが公開する1842年以降の世界の熱帯低気圧のベストトラックデータアーカイブInternational Best Track Archive for Climate Stewardship (IBTrACS)を、ウェブで閲覧しやすい形式に変換したものです。

最終更新日:2021-11-26